createdAt,value
2018-05-27T00:01:44.595Z,11.27
2018-05-27T00:04:12.162Z,10.90
2018-05-27T00:06:39.966Z,9.00
2018-05-27T00:09:07.472Z,8.80
2018-05-27T00:11:34.984Z,11.73
2018-05-27T00:14:02.488Z,8.60
2018-05-27T00:16:30.004Z,7.90
2018-05-27T00:18:57.552Z,9.03
2018-05-27T00:21:25.058Z,7.80
2018-05-27T00:23:52.586Z,7.63
2018-05-27T00:26:20.109Z,8.00
2018-05-27T00:28:47.642Z,8.57
2018-05-27T00:31:15.156Z,9.80
2018-05-27T00:33:42.671Z,7.27
2018-05-27T00:36:10.170Z,7.77
2018-05-27T00:38:37.682Z,10.27
2018-05-27T00:41:05.263Z,8.50
2018-05-27T00:43:32.772Z,9.63
2018-05-27T00:46:00.286Z,9.23
2018-05-27T00:48:27.839Z,11.03
2018-05-27T00:50:55.351Z,7.63
2018-05-27T00:53:34.674Z,8.23
2018-05-27T00:56:02.319Z,6.73
2018-05-27T00:58:29.846Z,5.80
2018-05-27T01:00:57.351Z,6.37
2018-05-27T01:03:24.847Z,7.03
2018-05-27T01:05:52.356Z,7.00
2018-05-27T01:08:19.868Z,8.33
2018-05-27T01:10:47.377Z,7.37
2018-05-27T01:13:14.931Z,8.43
2018-05-27T01:15:42.433Z,8.07
2018-05-27T01:18:09.979Z,7.53
2018-05-27T01:20:37.479Z,8.00
2018-05-27T01:23:05.008Z,6.67
2018-05-27T01:25:32.559Z,7.73
2018-05-27T01:28:00.083Z,7.93
2018-05-27T01:30:27.647Z,10.37
2018-05-27T01:32:55.155Z,8.97
2018-05-27T01:35:22.653Z,8.10
2018-05-27T01:37:50.157Z,9.60
2018-05-27T01:40:17.657Z,8.53
2018-05-27T01:42:45.215Z,8.43
2018-05-27T01:45:12.719Z,7.73
2018-05-27T01:47:40.238Z,8.53
2018-05-27T01:50:07.768Z,10.47
2018-05-27T01:52:35.287Z,8.20
2018-05-27T01:55:03.007Z,7.43
2018-05-27T01:57:31.367Z,9.40
2018-05-27T01:59:58.863Z,7.80
2018-05-27T02:02:26.374Z,8.63
2018-05-27T02:04:53.884Z,8.70
2018-05-27T02:07:21.388Z,8.03
2018-05-27T02:09:48.931Z,8.47
2018-05-27T02:12:16.467Z,8.83
2018-05-27T02:14:44.042Z,8.57
2018-05-27T02:17:11.568Z,9.03
2018-05-27T02:19:39.078Z,8.60
2018-05-27T02:22:06.602Z,12.17
2018-05-27T02:24:34.115Z,7.90
2018-05-27T02:27:01.682Z,8.33
2018-05-27T02:29:29.195Z,7.67
2018-05-27T02:31:56.708Z,10.33
2018-05-27T02:34:24.221Z,11.90
2018-05-27T02:36:51.785Z,9.00
2018-05-27T02:39:19.303Z,10.23
2018-05-27T02:41:46.800Z,7.77
2018-05-27T02:44:14.380Z,8.83
2018-05-27T02:46:41.894Z,9.07
2018-05-27T02:49:09.403Z,7.33
2018-05-27T02:51:36.902Z,10.77
2018-05-27T02:54:04.421Z,9.07
2018-05-27T02:56:31.923Z,12.47
2018-05-27T02:58:59.425Z,9.07
2018-05-27T03:01:26.964Z,10.93
2018-05-27T03:03:54.465Z,9.77
2018-05-27T03:06:21.993Z,9.53
2018-05-27T03:08:49.504Z,10.37
2018-05-27T03:11:17.004Z,9.97
2018-05-27T03:13:44.511Z,10.90
2018-05-27T03:16:12.041Z,17.93
2018-05-27T03:18:39.534Z,9.77
2018-05-27T03:21:07.044Z,9.93
2018-05-27T03:23:34.550Z,11.70
2018-05-27T03:26:02.053Z,9.47
2018-05-27T03:28:29.566Z,9.67
2018-05-27T03:30:57.092Z,10.87
2018-05-27T03:33:24.599Z,8.40
2018-05-27T03:35:52.219Z,9.60
2018-05-27T03:38:19.727Z,9.47
2018-05-27T03:40:47.245Z,8.50
2018-05-27T03:43:14.736Z,9.57
2018-05-27T03:45:42.249Z,9.13
2018-05-27T03:48:09.781Z,8.80
2018-05-27T03:50:37.286Z,9.03
2018-05-27T03:53:04.835Z,10.10
2018-05-27T03:55:32.344Z,9.73
2018-05-27T03:57:59.872Z,11.37
2018-05-27T04:00:27.396Z,9.53
2018-05-27T04:02:54.900Z,9.73
2018-05-27T04:05:34.155Z,8.60
2018-05-27T04:08:13.473Z,9.87
2018-05-27T04:10:40.989Z,9.80
2018-05-27T04:13:08.560Z,13.00
2018-05-27T04:15:36.067Z,9.30
2018-05-27T04:18:03.591Z,12.30
2018-05-27T04:20:31.098Z,12.27
2018-05-27T04:22:58.611Z,10.70
2018-05-27T04:25:26.118Z,10.97
2018-05-27T04:27:53.651Z,15.30
2018-05-27T04:30:21.204Z,11.97
2018-05-27T04:32:48.715Z,13.63
2018-05-27T04:35:16.240Z,16.50
2018-05-27T04:37:43.776Z,15.00
2018-05-27T04:40:11.299Z,12.20
2018-05-27T04:42:38.862Z,14.33
2018-05-27T04:45:06.396Z,12.10
2018-05-27T04:47:33.946Z,12.57
2018-05-27T04:50:01.517Z,11.17
2018-05-27T04:52:29.052Z,11.47
2018-05-27T04:54:56.618Z,13.37
2018-05-27T04:57:24.115Z,9.17
2018-05-27T04:59:51.638Z,8.80
2018-05-27T05:02:19.145Z,9.83
2018-05-27T05:04:46.688Z,9.37
2018-05-27T05:07:14.213Z,9.03
2018-05-27T05:09:41.730Z,8.53
2018-05-27T05:12:09.259Z,10.07
2018-05-27T05:14:36.832Z,9.60
2018-05-27T05:17:04.344Z,8.40
2018-05-27T05:19:31.879Z,8.80
2018-05-27T05:21:59.397Z,11.10
2018-05-27T05:24:26.903Z,8.30
2018-05-27T05:26:54.414Z,9.87
2018-05-27T05:29:21.934Z,10.37
2018-05-27T05:31:49.490Z,8.80
2018-05-27T05:34:17.076Z,11.97
2018-05-27T05:36:44.596Z,8.77
2018-05-27T05:39:12.360Z,9.20
2018-05-27T05:41:39.857Z,7.90
2018-05-27T05:44:07.385Z,11.43
2018-05-27T05:46:34.924Z,7.50
2018-05-27T05:49:02.485Z,9.10
2018-05-27T05:51:30.024Z,10.67
2018-05-27T05:53:57.540Z,9.43
2018-05-27T05:56:25.062Z,9.37
2018-05-27T05:58:52.615Z,11.70
2018-05-27T06:01:20.137Z,7.37
2018-05-27T06:03:47.659Z,9.63
2018-05-27T06:06:16.515Z,9.63
2018-05-27T06:08:44.028Z,9.50
2018-05-27T06:11:11.550Z,10.50
2018-05-27T06:13:39.119Z,9.37
2018-05-27T06:16:06.601Z,8.67
2018-05-27T06:18:34.159Z,12.43
2018-05-27T06:21:01.689Z,10.20
2018-05-27T06:23:29.200Z,7.90
2018-05-27T06:25:56.709Z,10.30
2018-05-27T06:28:24.267Z,8.60
2018-05-27T06:30:51.796Z,9.67
2018-05-27T06:33:20.253Z,9.20
2018-05-27T06:35:47.801Z,9.93
2018-05-27T06:38:15.364Z,9.60
2018-05-27T06:40:42.871Z,9.03
2018-05-27T06:43:10.423Z,7.47
2018-05-27T06:45:37.939Z,9.07
2018-05-27T06:48:05.440Z,10.43
2018-05-27T06:50:32.995Z,7.47
2018-05-27T06:53:00.503Z,11.00
2018-05-27T06:55:28.016Z,10.27
2018-05-27T06:57:55.550Z,8.37
2018-05-27T07:00:23.113Z,8.90
2018-05-27T07:02:50.643Z,7.97
2018-05-27T07:05:18.169Z,10.57
2018-05-27T07:07:45.725Z,7.50
2018-05-27T07:10:13.222Z,8.57
2018-05-27T07:12:40.735Z,13.87
2018-05-27T07:15:08.255Z,10.80
2018-05-27T07:17:35.779Z,9.83
2018-05-27T07:20:03.317Z,8.30
2018-05-27T07:22:30.816Z,8.80
2018-05-27T07:24:58.343Z,8.33
2018-05-27T07:27:25.904Z,12.27
2018-05-27T07:29:53.419Z,9.30
2018-05-27T07:32:20.943Z,12.53
2018-05-27T07:34:48.458Z,8.07
2018-05-27T07:37:16.025Z,13.53
2018-05-27T07:39:43.623Z,6.87
2018-05-27T07:42:11.157Z,9.67
2018-05-27T07:44:38.658Z,9.73
2018-05-27T07:47:06.172Z,7.17
2018-05-27T07:49:33.700Z,8.10
2018-05-27T07:52:01.229Z,7.07
2018-05-27T07:54:28.738Z,7.97
2018-05-27T07:56:56.361Z,8.30
2018-05-27T07:59:23.872Z,9.93
2018-05-27T08:01:51.437Z,10.40
2018-05-27T08:04:18.960Z,7.83
2018-05-27T08:06:46.603Z,6.30
2018-05-27T08:09:14.102Z,9.07
2018-05-27T08:11:41.631Z,7.60
2018-05-27T08:14:09.167Z,9.40
2018-05-27T08:16:36.788Z,8.43
2018-05-27T08:19:04.291Z,7.90
2018-05-27T08:21:31.816Z,8.83
2018-05-27T08:23:59.330Z,7.43
2018-05-27T08:26:26.915Z,12.27
2018-05-27T08:28:54.432Z,7.20
2018-05-27T08:31:22.727Z,10.33
2018-05-27T08:33:50.251Z,6.97
2018-05-27T08:36:17.771Z,7.60
2018-05-27T08:38:45.278Z,6.53
2018-05-27T08:41:12.796Z,9.57
2018-05-27T08:43:40.311Z,6.43
2018-05-27T08:46:07.834Z,6.43
2018-05-27T08:48:35.359Z,5.27
2018-05-27T08:51:02.924Z,9.57
2018-05-27T08:53:30.483Z,6.07
2018-05-27T08:55:58.036Z,6.13
2018-05-27T08:58:25.576Z,7.53
2018-05-27T09:00:53.102Z,7.60
2018-05-27T09:03:20.620Z,5.73
2018-05-27T09:05:48.137Z,8.23
2018-05-27T09:08:15.658Z,5.87
2018-05-27T09:10:43.273Z,5.90
2018-05-27T09:13:10.816Z,6.53
2018-05-27T09:15:38.348Z,4.93
2018-05-27T09:18:05.907Z,7.13
2018-05-27T09:20:33.446Z,7.83
2018-05-27T09:23:00.989Z,5.00
2018-05-27T09:25:28.518Z,9.43
2018-05-27T09:27:56.048Z,5.37
2018-05-27T09:30:23.625Z,8.20
2018-05-27T09:32:51.150Z,6.43
2018-05-27T09:35:18.682Z,15.07
2018-05-27T09:37:46.264Z,6.33
2018-05-27T09:40:13.810Z,7.03
2018-05-27T09:42:41.370Z,5.80
2018-05-27T09:45:08.969Z,6.37
2018-05-27T09:47:36.500Z,5.47
2018-05-27T09:50:04.023Z,6.37
2018-05-27T09:52:31.648Z,10.80
2018-05-27T09:54:59.201Z,6.00
2018-05-27T09:57:26.725Z,7.30
2018-05-27T09:59:54.288Z,7.60
2018-05-27T10:02:21.840Z,6.73
2018-05-27T10:04:49.560Z,5.43
2018-05-27T10:07:17.072Z,5.50
2018-05-27T10:09:44.608Z,5.63
2018-05-27T10:12:12.175Z,5.30
2018-05-27T10:14:39.694Z,4.90
2018-05-27T10:17:08.078Z,6.37
2018-05-27T10:19:35.619Z,4.97
2018-05-27T10:22:03.167Z,5.27
2018-05-27T10:24:30.721Z,8.30
2018-05-27T10:26:58.275Z,6.23
2018-05-27T10:29:25.857Z,6.17
2018-05-27T10:31:53.371Z,7.07
2018-05-27T10:34:20.879Z,10.80
2018-05-27T10:36:48.497Z,8.83
2018-05-27T10:39:16.049Z,8.13
2018-05-27T10:41:43.555Z,10.03
2018-05-27T10:44:11.103Z,8.30
2018-05-27T10:46:38.615Z,5.70
2018-05-27T10:49:06.123Z,6.50
2018-05-27T10:51:33.637Z,5.90
2018-05-27T10:54:01.201Z,6.65
2018-05-27T10:56:28.720Z,6.62
2018-05-27T10:58:56.224Z,4.75
2018-05-27T11:01:24.543Z,6.30
2018-05-27T11:03:52.051Z,5.28
2018-05-27T11:06:19.691Z,5.18
2018-05-27T11:08:47.204Z,6.15
2018-05-27T11:11:14.718Z,5.43
2018-05-27T11:13:42.236Z,7.55
2018-05-27T11:16:09.767Z,10.80
2018-05-27T11:18:37.309Z,6.90
2018-05-27T11:21:04.838Z,4.20
2018-05-27T11:23:32.377Z,8.55
2018-05-27T11:25:59.883Z,4.75
2018-05-27T11:28:27.414Z,8.80
2018-05-27T11:30:55.213Z,5.60
2018-05-27T11:33:22.708Z,5.12
2018-05-27T11:35:50.259Z,6.10
2018-05-27T11:38:17.785Z,5.72
2018-05-27T11:40:45.367Z,7.18
2018-05-27T11:43:12.874Z,6.62
2018-05-27T11:45:40.380Z,4.55
2018-05-27T11:48:07.893Z,5.50
2018-05-27T11:50:35.404Z,4.70
2018-05-27T11:53:02.953Z,7.30
2018-05-27T11:55:30.471Z,7.68
2018-05-27T11:57:58.076Z,6.80
2018-05-27T12:00:25.610Z,5.30
2018-05-27T12:02:53.155Z,6.45
2018-05-27T12:05:20.690Z,6.75
2018-05-27T12:07:48.209Z,5.82
2018-05-27T12:10:15.726Z,5.15
2018-05-27T12:12:43.271Z,4.07
2018-05-27T12:15:10.826Z,8.52
2018-05-27T12:17:38.419Z,6.25
2018-05-27T12:20:05.970Z,4.50
2018-05-27T12:22:33.494Z,6.00
2018-05-27T12:25:01.067Z,10.63
2018-05-27T12:27:28.585Z,6.62
2018-05-27T12:29:56.141Z,6.18
2018-05-27T12:32:23.708Z,5.15
2018-05-27T12:34:51.218Z,4.53
2018-05-27T12:37:18.722Z,4.57
2018-05-27T12:39:46.270Z,7.80
2018-05-27T12:42:13.820Z,4.47
2018-05-27T12:44:41.356Z,8.18
2018-05-27T12:47:08.866Z,5.57
2018-05-27T12:49:36.440Z,4.50
2018-05-27T12:52:03.951Z,6.25
2018-05-27T12:54:31.502Z,6.97
2018-05-27T12:56:59.130Z,7.18
2018-05-27T12:59:26.621Z,6.03
2018-05-27T13:01:54.147Z,5.78
2018-05-27T13:04:21.745Z,7.50
2018-05-27T13:06:49.265Z,9.15
2018-05-27T13:09:16.788Z,8.55
2018-05-27T13:11:44.384Z,4.60
2018-05-27T13:14:11.960Z,5.78
2018-05-27T13:16:39.633Z,5.72
2018-05-27T13:19:07.760Z,5.00
2018-05-27T13:21:35.354Z,6.53
2018-05-27T13:24:02.884Z,6.37
2018-05-27T13:26:30.412Z,8.43
2018-05-27T13:28:58.745Z,10.65
2018-05-27T13:31:26.320Z,4.57
2018-05-27T13:33:53.935Z,5.18
2018-05-27T13:36:21.436Z,6.60
2018-05-27T13:38:48.953Z,4.97
2018-05-27T13:41:16.490Z,9.75
2018-05-27T13:43:44.019Z,8.02
2018-05-27T13:46:11.570Z,7.37
2018-05-27T13:48:39.146Z,5.18
2018-05-27T13:51:06.703Z,7.15
2018-05-27T13:53:34.298Z,6.60
2018-05-27T13:56:01.877Z,5.12
2018-05-27T13:58:29.459Z,6.72
2018-05-27T14:00:57.026Z,5.03
2018-05-27T14:03:24.600Z,5.28
2018-05-27T14:05:52.146Z,7.47
2018-05-27T14:08:19.715Z,10.00
2018-05-27T14:10:47.255Z,5.95
2018-05-27T14:13:14.824Z,4.47
2018-05-27T14:15:42.403Z,5.95
2018-05-27T14:18:09.934Z,5.00
2018-05-27T14:20:37.478Z,5.15
2018-05-27T14:23:05.046Z,6.37
2018-05-27T14:25:32.555Z,9.13
2018-05-27T14:28:00.107Z,6.85
2018-05-27T14:30:27.662Z,5.60
2018-05-27T14:32:55.228Z,10.48
2018-05-27T14:35:23.702Z,5.70
2018-05-27T14:37:52.025Z,10.40
2018-05-27T14:40:19.536Z,6.10
2018-05-27T14:42:47.059Z,5.53
2018-05-27T14:45:14.601Z,5.20
2018-05-27T14:47:42.112Z,7.20
2018-05-27T14:50:09.616Z,8.43
2018-05-27T14:52:37.896Z,8.60
2018-05-27T14:55:05.429Z,7.05
2018-05-27T14:57:32.957Z,4.87
2018-05-27T15:00:00.467Z,7.90
2018-05-27T15:02:27.991Z,6.87
2018-05-27T15:04:55.539Z,10.63
2018-05-27T15:07:23.091Z,5.87
2018-05-27T15:09:50.624Z,7.12
2018-05-27T15:12:18.732Z,6.43
2018-05-27T15:14:46.299Z,5.40
2018-05-27T15:17:13.815Z,5.80
2018-05-27T15:19:41.351Z,6.72
2018-05-27T15:22:08.865Z,9.73
2018-05-27T15:24:36.403Z,7.60
2018-05-27T15:27:03.962Z,6.85
2018-05-27T15:29:31.551Z,9.25
2018-05-27T15:31:59.093Z,6.62
2018-05-27T15:34:26.663Z,5.32
2018-05-27T15:36:54.218Z,9.38
2018-05-27T15:39:21.715Z,9.98
2018-05-27T15:41:49.280Z,8.25
2018-05-27T15:44:16.796Z,7.05
2018-05-27T15:46:44.396Z,6.45
2018-05-27T15:49:11.916Z,5.55
2018-05-27T15:51:39.460Z,6.97
2018-05-27T15:54:06.970Z,6.50
2018-05-27T15:56:34.513Z,10.43
2018-05-27T15:59:02.023Z,9.68
2018-05-27T16:01:29.610Z,7.78
2018-05-27T16:03:57.140Z,9.73
2018-05-27T16:06:24.659Z,7.20
2018-05-27T16:08:52.469Z,7.82
2018-05-27T16:11:20.763Z,11.80
2018-05-27T16:13:48.316Z,8.95
2018-05-27T16:16:15.815Z,6.32
2018-05-27T16:18:43.332Z,7.87
2018-05-27T16:21:10.921Z,9.75
2018-05-27T16:23:38.481Z,5.62
2018-05-27T16:26:05.991Z,9.93
2018-05-27T16:28:33.525Z,9.45
2018-05-27T16:31:01.103Z,10.05
2018-05-27T16:33:28.606Z,6.95
2018-05-27T16:35:56.116Z,5.85
2018-05-27T16:38:23.982Z,8.80
2018-05-27T16:40:51.724Z,8.00
2018-05-27T16:43:19.236Z,7.35
2018-05-27T16:45:46.830Z,9.52
2018-05-27T16:48:14.315Z,13.05
2018-05-27T16:50:41.829Z,12.07
2018-05-27T16:53:09.501Z,11.00
2018-05-27T16:55:37.028Z,9.77
2018-05-27T16:58:05.651Z,8.43
2018-05-27T17:00:33.264Z,8.93
2018-05-27T17:03:00.814Z,11.20
2018-05-27T17:05:30.564Z,8.97
2018-05-27T17:07:58.100Z,11.13
2018-05-27T17:10:25.607Z,8.17
2018-05-27T17:12:53.110Z,9.73
2018-05-27T17:15:20.667Z,13.10
2018-05-27T17:17:48.258Z,10.20
2018-05-27T17:20:15.802Z,6.53
2018-05-27T17:22:43.305Z,8.63
2018-05-27T17:25:10.815Z,9.00
2018-05-27T17:27:38.532Z,7.37
2018-05-27T17:30:07.865Z,9.80
2018-05-27T17:32:35.487Z,11.03
2018-05-27T17:35:03.082Z,10.20
2018-05-27T17:37:30.705Z,12.27
2018-05-27T17:39:58.320Z,8.23
2018-05-27T17:42:25.873Z,12.60
2018-05-27T17:44:54.263Z,10.20
2018-05-27T17:47:21.834Z,10.20
2018-05-27T17:49:49.443Z,11.10
2018-05-27T17:52:17.015Z,12.53
2018-05-27T17:54:44.524Z,10.27
2018-05-27T17:57:12.125Z,11.53
2018-05-27T17:59:39.668Z,11.97
2018-05-27T18:02:07.166Z,8.10
2018-05-27T18:04:34.718Z,9.53
2018-05-27T18:07:02.319Z,11.33
2018-05-27T18:09:29.840Z,10.03
2018-05-27T18:11:58.534Z,11.50
2018-05-27T18:14:26.158Z,12.10
2018-05-27T18:16:53.681Z,9.10
2018-05-27T18:19:21.184Z,9.17
2018-05-27T18:21:48.730Z,9.83
2018-05-27T18:24:16.274Z,11.57
2018-05-27T18:26:43.826Z,10.07
2018-05-27T18:29:11.412Z,10.60
2018-05-27T18:31:38.959Z,12.17
2018-05-27T18:34:06.502Z,9.90
2018-05-27T18:36:34.521Z,9.40
2018-05-27T18:39:02.045Z,9.53
2018-05-27T18:41:29.560Z,10.80
2018-05-27T18:43:58.317Z,14.30
2018-05-27T18:46:25.834Z,8.17
2018-05-27T18:48:53.365Z,9.93
2018-05-27T18:51:20.882Z,12.20
2018-05-27T18:53:48.434Z,11.30
2018-05-27T18:56:15.969Z,11.30
2018-05-27T18:58:43.498Z,10.87
2018-05-27T19:01:11.010Z,13.63
2018-05-27T19:03:38.534Z,21.87
2018-05-27T19:06:06.061Z,11.67
2018-05-27T19:08:33.571Z,9.87
2018-05-27T19:11:01.163Z,11.63
2018-05-27T19:13:28.691Z,11.57
2018-05-27T19:15:56.245Z,10.77
2018-05-27T19:18:23.761Z,8.30
2018-05-27T19:20:51.263Z,10.43
2018-05-27T19:23:18.797Z,12.93
2018-05-27T19:25:46.343Z,13.23
2018-05-27T19:28:13.856Z,11.50
2018-05-27T19:30:41.376Z,26.03
2018-05-27T19:33:08.881Z,11.87
2018-05-27T19:35:36.449Z,12.13
2018-05-27T19:38:03.971Z,13.80
2018-05-27T19:40:31.493Z,12.17
2018-05-27T19:42:59.013Z,11.63
2018-05-27T19:45:26.536Z,10.13
2018-05-27T19:47:54.040Z,9.47
2018-05-27T19:50:22.428Z,14.70
2018-05-27T19:52:49.989Z,12.20
2018-05-27T19:55:18.035Z,14.73
2018-05-27T19:57:45.612Z,11.47
2018-05-27T20:00:14.551Z,13.60
2018-05-27T20:02:42.109Z,14.13
2018-05-27T20:05:09.626Z,10.13
2018-05-27T20:07:37.147Z,14.37
2018-05-27T20:10:04.687Z,11.40
2018-05-27T20:12:32.238Z,10.37
2018-05-27T20:14:59.799Z,10.07
2018-05-27T20:17:27.324Z,9.50
2018-05-27T20:19:54.879Z,12.57
2018-05-27T20:22:22.399Z,11.67
2018-05-27T20:24:49.900Z,16.80
2018-05-27T20:27:17.479Z,10.10
2018-05-27T20:29:45.049Z,10.57
2018-05-27T20:32:13.484Z,10.70
2018-05-27T20:34:41.047Z,12.47
2018-05-27T20:37:08.573Z,10.63
2018-05-27T20:46:21.451Z,11.07
2018-05-27T20:48:48.972Z,13.37
2018-05-27T20:51:16.539Z,12.10
2018-05-27T20:53:44.076Z,13.73
2018-05-27T20:56:11.591Z,12.43
2018-05-27T20:58:39.112Z,18.13
2018-05-27T21:01:06.855Z,10.60
2018-05-27T21:03:34.386Z,12.50
2018-05-27T21:06:01.912Z,15.77
2018-05-27T21:08:29.439Z,16.70
2018-05-27T21:10:57.282Z,19.37
2018-05-27T21:13:24.875Z,11.93
2018-05-27T21:15:52.386Z,11.03
2018-05-27T21:18:19.977Z,11.70
2018-05-27T21:20:47.491Z,12.80
2018-05-27T21:23:15.001Z,12.43
2018-05-27T21:25:42.514Z,9.63
2018-05-27T21:28:10.053Z,11.83
2018-05-27T21:30:37.559Z,13.40
2018-05-27T21:33:05.091Z,16.67
2018-05-27T21:35:32.611Z,13.60
2018-05-27T21:38:00.158Z,10.23
2018-05-27T21:40:27.703Z,12.40
2018-05-27T21:42:55.216Z,14.03
2018-05-27T21:45:22.776Z,10.97
2018-05-27T21:47:50.286Z,10.97
2018-05-27T21:50:17.797Z,14.63
2018-05-27T21:52:46.608Z,13.27
2018-05-27T21:55:14.158Z,12.73
2018-05-27T21:57:41.665Z,10.37
2018-05-27T22:00:09.240Z,15.63
2018-05-27T22:02:36.775Z,11.93
2018-05-27T22:05:04.289Z,9.87
2018-05-27T22:07:31.801Z,13.57
2018-05-27T22:09:59.318Z,14.60
2018-05-27T22:12:26.819Z,13.37
2018-05-27T22:14:54.358Z,24.63
2018-05-27T22:17:21.965Z,15.10
2018-05-27T22:19:49.498Z,13.27
2018-05-27T22:22:17.043Z,14.63
2018-05-27T22:24:44.550Z,14.63
2018-05-27T22:27:12.061Z,19.23
2018-05-27T22:29:39.589Z,14.67
2018-05-27T22:32:07.105Z,12.17
2018-05-27T22:34:34.606Z,11.50
2018-05-27T22:37:02.110Z,14.37
2018-05-27T22:39:29.646Z,14.70
2018-05-27T22:41:57.161Z,16.63
2018-05-27T22:44:24.718Z,12.80
2018-05-27T22:46:52.231Z,15.30
2018-05-27T22:49:19.804Z,15.63
2018-05-27T22:51:47.318Z,14.67
2018-05-27T22:54:14.824Z,16.03
2018-05-27T22:56:42.334Z,11.77
2018-05-27T22:59:09.838Z,16.63
2018-05-27T23:01:37.362Z,13.23
2018-05-27T23:04:04.871Z,14.40
2018-05-27T23:06:32.380Z,13.20
2018-05-27T23:08:59.874Z,15.73
2018-05-27T23:11:27.386Z,12.63
2018-05-27T23:13:54.886Z,14.33
2018-05-27T23:16:22.453Z,12.37
2018-05-27T23:18:50.012Z,10.97
2018-05-27T23:21:17.608Z,14.00
2018-05-27T23:23:45.200Z,10.87
2018-05-27T23:26:12.783Z,15.00
2018-05-27T23:28:40.316Z,13.70
2018-05-27T23:31:07.855Z,13.60
2018-05-27T23:33:35.373Z,17.97
2018-05-27T23:36:02.923Z,11.43
2018-05-27T23:38:30.492Z,11.63
2018-05-27T23:40:58.013Z,12.27
2018-05-27T23:43:25.748Z,12.17
2018-05-27T23:45:53.318Z,10.93
2018-05-27T23:48:20.890Z,10.93
2018-05-27T23:50:48.390Z,13.03
2018-05-27T23:53:15.903Z,13.30
2018-05-27T23:55:43.466Z,13.83
2018-05-27T23:58:10.994Z,12.27
